Seastreak Highlands — WDE4031 — position and weather

sailwx.info

Track history (hours):
 
Tides and Currents Weather Stations Pressure Air Temp Water Temp Dewpoint Dewpoint Depression Visibility Wind Speed Wind Dir Waves Ship Positions

Seastreak Highlands

Owner: Seastreak llc, atlantic highlands, NJ. More information available from US FCC via Universal Licensing System and Coast Guard Vessel Documentation Center.

Last reported at 2016-Aug-30 00:25 UTC. Time now 2016-Sep-01 05:41 UTC.
Position N 40°34' W 074°02'.

Length 44 m.

Type: High speed craft. MMSI: 367347670.

Date/timePositionNaut miles runAvg speedWind from/ knotsBaromVisibWave heightAir tempDewpointWater temp
2016-Aug-30 00:25N 40°34' W 074°02'1112.3
2016-Aug-29 23:33N 40°44' W 073°58'3 1.3
2016-Aug-29 21:33N 40°42' W 074°01'5 5.3
2016-Aug-29 20:33N 40°37' W 074°03'3 2.1
2016-Aug-29 19:21N 40°34' W 074°02'8 9.6
2016-Aug-29 18:34N 40°42' W 074°00'9 2.1
2016-Aug-29 14:20N 40°33' W 074°02'1012.5
2016-Aug-29 13:34N 40°42' W 074°00'9 7.9
2016-Aug-29 12:26N 40°33' W 074°02'6 7.3
2016-Aug-29 11:34N 40°40' W 074°01'4 0.3
2016-Aug-28 21:16N 40°36' W 074°03'1012.5
2016-Aug-28 20:30N 40°44' W 073°58'9 1.6
2016-Aug-28 15:05N 40°36' W 074°02'711.8
2016-Aug-28 14:27N 40°43' W 073°58'1817.9
2016-Aug-28 13:26N 40°25' W 073°60'1314.5
2016-Aug-28 12:33N 40°37' W 074°03'6 5.7
2016-Aug-28 11:33N 40°42' W 074°00'8 0.6
2016-Aug-27 21:17N 40°34' W 074°03'1115.4
2016-Aug-27 20:34N 40°45' W 073°58'9 1.7
2016-Aug-27 15:07N 40°36' W 074°03'1016.8
2016-Aug-27 14:33N 40°45' W 073°58'9 4.3
2016-Aug-27 12:34N 40°37' W 074°03'7 6.6
2016-Aug-27 11:34N 40°43' W 073°59'8 0.7
2016-Aug-27 00:04N 40°35' W 074°02'1020.1
2016-Aug-26 23:33N 40°45' W 073°58'3 1.4
2016-Aug-26 21:34N 40°42' W 074°00'10 9.9
2016-Aug-26 20:33N 40°32' W 074°02'2 1.8
2016-Aug-26 19:30N 40°34' W 074°03'1111.6
2016-Aug-26 18:33N 40°45' W 073°58'0 0.0
2016-Aug-26 17:33N 40°45' W 073°58'0 0.0
2016-Aug-26 16:33N 40°45' W 073°58'0 0.0
2016-Aug-26 15:33N 40°45' W 073°58'0 0.0
2016-Aug-26 14:33N 40°45' W 073°58'3 3.2
2016-Aug-26 13:34N 40°42' W 074°00'8 8.2
2016-Aug-26 12:31N 40°34' W 074°02'7 7.5
2016-Aug-26 11:34N 40°41' W 074°01'4 0.3
2016-Aug-25 23:34N 40°43' W 073°58'3 1.3
2016-Aug-25 21:34N 40°41' W 074°01'4 4.4
2016-Aug-25 20:33N 40°37' W 074°03'6 5.1
2016-Aug-25 19:24N 40°31' W 074°02'1415.9
2016-Aug-25 18:33N 40°45' W 073°58'0 0.0
2016-Aug-25 17:33N 40°45' W 073°58'0 0.0
2016-Aug-25 16:32N 40°45' W 073°58'0 0.0
2016-Aug-25 15:33N 40°45' W 073°58'0 0.0
2016-Aug-25 14:33N 40°45' W 073°58'3 2.9
2016-Aug-25 13:34N 40°42' W 074°00'8 7.5
2016-Aug-25 12:29N 40°34' W 074°02'6 6.9
2016-Aug-25 11:34N 40°41' W 074°01'9 0.8
2016-Aug-25 00:13N 40°32' W 074°02'1319.4
2016-Aug-24 23:34N 40°44' W 073°58'3 1.5
2016-Aug-24 21:34N 40°42' W 074°01'5 5.4
2016-Aug-24 20:33N 40°37' W 074°03'2 1.3
2016-Aug-24 19:18N 40°35' W 074°02'1013.3
2016-Aug-24 18:33N 40°45' W 073°58'0 0.0
2016-Aug-24 17:33N 40°45' W 073°58'0 0.0
2016-Aug-24 16:34N 40°45' W 073°58'0 0.0
2016-Aug-24 15:34N 40°45' W 073°58'0 0.0
2016-Aug-24 14:34N 40°45' W 073°58'5 4.7
2016-Aug-24 13:34N 40°41' W 074°01'7 6.9
2016-Aug-24 12:33N 40°34' W 074°02'6 5.6
2016-Aug-24 11:34N 40°39' W 074°02'5 0.4
2016-Aug-24 00:05N 40°34' W 074°02'1018.5
2016-Aug-23 23:34N 40°44' W 073°58'3 1.4
2016-Aug-23 21:34N 40°42' W 074°01'9 8.5
2016-Aug-23 20:33N 40°33' W 074°02'1 0.8
2016-Aug-23 19:23N 40°34' W 074°02'1113.2
2016-Aug-23 18:33N 40°45' W 073°58'0 0.0
2016-Aug-23 17:33N 40°45' W 073°58'0 0.0
2016-Aug-23 16:33N 40°45' W 073°58'0 0.0
2016-Aug-23 15:33N 40°45' W 073°58'0 0.0
2016-Aug-23 14:33N 40°45' W 073°58'4 3.9
2016-Aug-23 13:34N 40°42' W 074°01'9 8.5
2016-Aug-23 12:32N 40°33' W 074°02'6 6.3
2016-Aug-23 11:34N 40°39' W 074°02'5 0.4
2016-Aug-22 23:34N 40°43' W 073°58'3 1.5
2016-Aug-22 21:34N 40°41' W 074°01'4 4.0
2016-Aug-22 20:33N 40°37' W 074°03'3 2.0
2016-Aug-22 19:15N 40°35' W 074°03'1015.0
2016-Aug-22 18:33N 40°45' W 073°58'0 0.0
2016-Aug-22 17:32N 40°45' W 073°58'0 0.0
2016-Aug-22 16:28N 40°45' W 073°58'0 0.0
2016-Aug-22 15:32N 40°45' W 073°58'0 0.0
2016-Aug-22 14:33N 40°45' W 073°58'3 3.0
2016-Aug-22 13:34N 40°42' W 074°00'9 8.5
2016-Aug-22 12:31N 40°33' W 074°02'5 5.7
2016-Aug-22 11:34N 40°39' W 074°02'2 0.2
2016-Aug-22 01:34N 40°41' W 074°01'4 4.0
2016-Aug-22 00:34N 40°45' W 073°58'11 7.6
2016-Aug-21 23:07N 40°34' W 074°02'1119.1
2016-Aug-21 22:33N 40°45' W 073°58'9 6.2
2016-Aug-21 21:04N 40°36' W 074°03'7 9.8
2016-Aug-21 20:20N 40°42' W 073°59'1 0.1
2016-Aug-21 01:34N 40°42' W 074°00'1 0.6
2016-Aug-21 00:33N 40°42' W 074°00'8 6.0
2016-Aug-20 23:13N 40°34' W 074°02'1116.2
2016-Aug-20 22:33N 40°45' W 073°58'3 0.6
2016-Aug-20 17:33N 40°42' W 074°00'6 2.8
2016-Aug-20 15:17N 40°36' W 074°03'4 5.3
2016-Aug-20 14:34N 40°40' W 074°01'  
Track history (hours):
 
Tides and Currents Weather Stations Pressure Air Temp Water Temp Dewpoint Dewpoint Depression Visibility Wind Speed Wind Dir Waves Ship Positions

Seastreak Highlands

Owner: Seastreak llc, atlantic highlands, NJ. More information available from US FCC via Universal Licensing System and Coast Guard Vessel Documentation Center.

Last reported at 2016-Aug-30 00:25 UTC. Time now 2016-Sep-01 05:41 UTC.
Position N 40°34' W 074°02'.

Length 44 m.

Type: High speed craft. MMSI: 367347670.

Date/timePositionNaut miles runAvg speedWind from/ knotsBaromVisibWave heightAir tempDewpointWater temp
2016-Aug-30 00:25N 40°34' W 074°02'1112.3
2016-Aug-29 23:33N 40°44' W 073°58'3 1.3
2016-Aug-29 21:33N 40°42' W 074°01'5 5.3
2016-Aug-29 20:33N 40°37' W 074°03'3 2.1
2016-Aug-29 19:21N 40°34' W 074°02'8 9.6
2016-Aug-29 18:34N 40°42' W 074°00'9 2.1
2016-Aug-29 14:20N 40°33' W 074°02'1012.5
2016-Aug-29 13:34N 40°42' W 074°00'9 7.9
2016-Aug-29 12:26N 40°33' W 074°02'6 7.3
2016-Aug-29 11:34N 40°40' W 074°01'4 0.3
2016-Aug-28 21:16N 40°36' W 074°03'1012.5
2016-Aug-28 20:30N 40°44' W 073°58'9 1.6
2016-Aug-28 15:05N 40°36' W 074°02'711.8
2016-Aug-28 14:27N 40°43' W 073°58'1817.9
2016-Aug-28 13:26N 40°25' W 073°60'1314.5
2016-Aug-28 12:33N 40°37' W 074°03'6 5.7
2016-Aug-28 11:33N 40°42' W 074°00'8 0.6
2016-Aug-27 21:17N 40°34' W 074°03'1115.4
2016-Aug-27 20:34N 40°45' W 073°58'9 1.7
2016-Aug-27 15:07N 40°36' W 074°03'1016.8
2016-Aug-27 14:33N 40°45' W 073°58'9 4.3
2016-Aug-27 12:34N 40°37' W 074°03'7 6.6
2016-Aug-27 11:34N 40°43' W 073°59'8 0.7
2016-Aug-27 00:04N 40°35' W 074°02'1020.1
2016-Aug-26 23:33N 40°45' W 073°58'3 1.4
2016-Aug-26 21:34N 40°42' W 074°00'10 9.9
2016-Aug-26 20:33N 40°32' W 074°02'2 1.8
2016-Aug-26 19:30N 40°34' W 074°03'1111.6
2016-Aug-26 18:33N 40°45' W 073°58'0 0.0
2016-Aug-26 17:33N 40°45' W 073°58'0 0.0
2016-Aug-26 16:33N 40°45' W 073°58'0 0.0
2016-Aug-26 15:33N 40°45' W 073°58'0 0.0
2016-Aug-26 14:33N 40°45' W 073°58'3 3.2
2016-Aug-26 13:34N 40°42' W 074°00'8 8.2
2016-Aug-26 12:31N 40°34' W 074°02'7 7.5
2016-Aug-26 11:34N 40°41' W 074°01'4 0.3
2016-Aug-25 23:34N 40°43' W 073°58'3 1.3
2016-Aug-25 21:34N 40°41' W 074°01'4 4.4
2016-Aug-25 20:33N 40°37' W 074°03'6 5.1
2016-Aug-25 19:24N 40°31' W 074°02'1415.9
2016-Aug-25 18:33N 40°45' W 073°58'0 0.0
2016-Aug-25 17:33N 40°45' W 073°58'0 0.0
2016-Aug-25 16:32N 40°45' W 073°58'0 0.0
2016-Aug-25 15:33N 40°45' W 073°58'0 0.0
2016-Aug-25 14:33N 40°45' W 073°58'3 2.9
2016-Aug-25 13:34N 40°42' W 074°00'8 7.5
2016-Aug-25 12:29N 40°34' W 074°02'6 6.9
2016-Aug-25 11:34N 40°41' W 074°01'9 0.8
2016-Aug-25 00:13N 40°32' W 074°02'1319.4
2016-Aug-24 23:34N 40°44' W 073°58'3 1.5
2016-Aug-24 21:34N 40°42' W 074°01'5 5.4
2016-Aug-24 20:33N 40°37' W 074°03'2 1.3
2016-Aug-24 19:18N 40°35' W 074°02'1013.3
2016-Aug-24 18:33N 40°45' W 073°58'0 0.0
2016-Aug-24 17:33N 40°45' W 073°58'0 0.0
2016-Aug-24 16:34N 40°45' W 073°58'0 0.0
2016-Aug-24 15:34N 40°45' W 073°58'0 0.0
2016-Aug-24 14:34N 40°45' W 073°58'5 4.7
2016-Aug-24 13:34N 40°41' W 074°01'7 6.9
2016-Aug-24 12:33N 40°34' W 074°02'6 5.6
2016-Aug-24 11:34N 40°39' W 074°02'5 0.4
2016-Aug-24 00:05N 40°34' W 074°02'1018.5
2016-Aug-23 23:34N 40°44' W 073°58'3 1.4
2016-Aug-23 21:34N 40°42' W 074°01'9 8.5
2016-Aug-23 20:33N 40°33' W 074°02'1 0.8
2016-Aug-23 19:23N 40°34' W 074°02'1113.2
2016-Aug-23 18:33N 40°45' W 073°58'0 0.0
2016-Aug-23 17:33N 40°45' W 073°58'0 0.0
2016-Aug-23 16:33N 40°45' W 073°58'0 0.0
2016-Aug-23 15:33N 40°45' W 073°58'0 0.0
2016-Aug-23 14:33N 40°45' W 073°58'4 3.9
2016-Aug-23 13:34N 40°42' W 074°01'9 8.5
2016-Aug-23 12:32N 40°33' W 074°02'6 6.3
2016-Aug-23 11:34N 40°39' W 074°02'5 0.4
2016-Aug-22 23:34N 40°43' W 073°58'3 1.5
2016-Aug-22 21:34N 40°41' W 074°01'4 4.0
2016-Aug-22 20:33N 40°37' W 074°03'3 2.0
2016-Aug-22 19:15N 40°35' W 074°03'1015.0
2016-Aug-22 18:33N 40°45' W 073°58'0 0.0
2016-Aug-22 17:32N 40°45' W 073°58'0 0.0
2016-Aug-22 16:28N 40°45' W 073°58'0 0.0
2016-Aug-22 15:32N 40°45' W 073°58'0 0.0
2016-Aug-22 14:33N 40°45' W 073°58'3 3.0
2016-Aug-22 13:34N 40°42' W 074°00'9 8.5
2016-Aug-22 12:31N 40°33' W 074°02'5 5.7
2016-Aug-22 11:34N 40°39' W 074°02'2 0.2
2016-Aug-22 01:34N 40°41' W 074°01'4 4.0
2016-Aug-22 00:34N 40°45' W 073°58'11 7.6
2016-Aug-21 23:07N 40°34' W 074°02'1119.1
2016-Aug-21 22:33N 40°45' W 073°58'9 6.2
2016-Aug-21 21:04N 40°36' W 074°03'7 9.8
2016-Aug-21 20:20N 40°42' W 073°59'1 0.1
2016-Aug-21 01:34N 40°42' W 074°00'1 0.6
2016-Aug-21 00:33N 40°42' W 074°00'8 6.0
2016-Aug-20 23:13N 40°34' W 074°02'1116.2
2016-Aug-20 22:33N 40°45' W 073°58'3 0.6
2016-Aug-20 17:33N 40°42' W 074°00'6 2.8
2016-Aug-20 15:17N 40°36' W 074°03'4 5.3
2016-Aug-20 14:34N 40°40' W 074°01'  

Dump ship's entire track history